sensor_id;sensor_type;location;lat;lon;timestamp;P1;durP1;ratioP1;P2;durP2;ratioP2
14923;SDS011;7554;43.600;1.480;2023-02-22T00:01:34;14.97;;;10.20;;
14923;SDS011;7554;43.600;1.480;2023-02-22T00:04:11;16.50;;;10.37;;
14923;SDS011;7554;43.600;1.480;2023-02-22T00:06:40;15.57;;;10.67;;
14923;SDS011;7554;43.600;1.480;2023-02-22T00:09:09;16.53;;;10.90;;
14923;SDS011;7554;43.600;1.480;2023-02-22T00:11:37;19.03;;;10.60;;
14923;SDS011;7554;43.600;1.480;2023-02-22T00:14:12;17.80;;;10.83;;
14923;SDS011;7554;43.600;1.480;2023-02-22T00:16:39;15.00;;;10.67;;
14923;SDS011;7554;43.600;1.480;2023-02-22T00:19:06;15.27;;;10.67;;
14923;SDS011;7554;43.600;1.480;2023-02-22T00:21:34;15.73;;;10.43;;
14923;SDS011;7554;43.600;1.480;2023-02-22T00:24:02;13.53;;;9.80;;
14923;SDS011;7554;43.600;1.480;2023-02-22T00:26:47;16.70;;;9.20;;
14923;SDS011;7554;43.600;1.480;2023-02-22T00:29:17;14.37;;;9.53;;
14923;SDS011;7554;43.600;1.480;2023-02-22T00:31:44;14.47;;;10.03;;
14923;SDS011;7554;43.600;1.480;2023-02-22T00:34:12;14.13;;;9.80;;
14923;SDS011;7554;43.600;1.480;2023-02-22T00:36:43;19.13;;;9.90;;
14923;SDS011;7554;43.600;1.480;2023-02-22T00:39:11;15.57;;;10.10;;
14923;SDS011;7554;43.600;1.480;2023-02-22T00:41:38;16.07;;;10.10;;
14923;SDS011;7554;43.600;1.480;2023-02-22T00:44:06;14.30;;;10.50;;
14923;SDS011;7554;43.600;1.480;2023-02-22T00:46:35;14.87;;;10.07;;
14923;SDS011;7554;43.600;1.480;2023-02-22T00:49:02;16.20;;;10.00;;
14923;SDS011;7554;43.600;1.480;2023-02-22T00:51:30;19.37;;;10.50;;
14923;SDS011;7554;43.600;1.480;2023-02-22T00:53:58;17.23;;;10.00;;
14923;SDS011;7554;43.600;1.480;2023-02-22T00:56:25;16.13;;;10.23;;
14923;SDS011;7554;43.600;1.480;2023-02-22T00:58:53;14.47;;;10.27;;
14923;SDS011;7554;43.600;1.480;2023-02-22T01:01:20;13.77;;;10.73;;
14923;SDS011;7554;43.600;1.480;2023-02-22T01:03:50;13.73;;;10.17;;
14923;SDS011;7554;43.600;1.480;2023-02-22T01:06:17;11.13;;;9.53;;
14923;SDS011;7554;43.600;1.480;2023-02-22T01:08:45;13.83;;;9.63;;
14923;SDS011;7554;43.600;1.480;2023-02-22T01:11:13;15.73;;;10.17;;
14923;SDS011;7554;43.600;1.480;2023-02-22T01:13:42;17.03;;;11.10;;
14923;SDS011;7554;43.600;1.480;2023-02-22T01:16:09;16.43;;;10.40;;
14923;SDS011;7554;43.600;1.480;2023-02-22T01:18:37;15.13;;;9.63;;
14923;SDS011;7554;43.600;1.480;2023-02-22T01:21:06;17.53;;;11.00;;
14923;SDS011;7554;43.600;1.480;2023-02-22T01:23:34;16.07;;;10.23;;
14923;SDS011;7554;43.600;1.480;2023-02-22T01:26:01;14.27;;;9.97;;
14923;SDS011;7554;43.600;1.480;2023-02-22T01:28:30;18.07;;;10.90;;
14923;SDS011;7554;43.600;1.480;2023-02-22T01:30:57;17.03;;;10.70;;
14923;SDS011;7554;43.600;1.480;2023-02-22T01:33:25;14.30;;;10.93;;
14923;SDS011;7554;43.600;1.480;2023-02-22T01:35:53;12.70;;;10.03;;
14923;SDS011;7554;43.600;1.480;2023-02-22T01:38:22;15.83;;;10.40;;
14923;SDS011;7554;43.600;1.480;2023-02-22T01:40:50;16.93;;;10.67;;
14923;SDS011;7554;43.600;1.480;2023-02-22T01:43:19;14.97;;;10.77;;
14923;SDS011;7554;43.600;1.480;2023-02-22T01:48:31;17.33;;;11.20;;
14923;SDS011;7554;43.600;1.480;2023-02-22T01:51:07;16.57;;;11.37;;
14923;SDS011;7554;43.600;1.480;2023-02-22T01:53:40;18.27;;;10.93;;
14923;SDS011;7554;43.600;1.480;2023-02-22T01:56:12;15.33;;;11.00;;
14923;SDS011;7554;43.600;1.480;2023-02-22T01:58:42;18.73;;;11.17;;
14923;SDS011;7554;43.600;1.480;2023-02-22T02:01:13;19.47;;;11.53;;
14923;SDS011;7554;43.600;1.480;2023-02-22T02:03:41;16.30;;;11.33;;
14923;SDS011;7554;43.600;1.480;2023-02-22T02:06:11;18.30;;;11.80;;
14923;SDS011;7554;43.600;1.480;2023-02-22T02:08:44;18.67;;;11.20;;
14923;SDS011;7554;43.600;1.480;2023-02-22T02:11:19;14.80;;;10.40;;
14923;SDS011;7554;43.600;1.480;2023-02-22T02:13:49;15.90;;;10.83;;
14923;SDS011;7554;43.600;1.480;2023-02-22T02:16:19;13.27;;;10.43;;
14923;SDS011;7554;43.600;1.480;2023-02-22T02:18:47;16.60;;;10.83;;
14923;SDS011;7554;43.600;1.480;2023-02-22T02:27:33;16.97;;;10.90;;
14923;SDS011;7554;43.600;1.480;2023-02-22T02:30:26;16.20;;;11.70;;
14923;SDS011;7554;43.600;1.480;2023-02-22T02:33:19;16.83;;;11.30;;
14923;SDS011;7554;43.600;1.480;2023-02-22T02:35:54;16.10;;;10.67;;
14923;SDS011;7554;43.600;1.480;2023-02-22T02:38:29;18.30;;;11.50;;
14923;SDS011;7554;43.600;1.480;2023-02-22T02:41:02;15.03;;;10.83;;
14923;SDS011;7554;43.600;1.480;2023-02-22T02:43:37;17.80;;;10.80;;
14923;SDS011;7554;43.600;1.480;2023-02-22T02:46:09;15.60;;;10.53;;
14923;SDS011;7554;43.600;1.480;2023-02-22T02:48:44;17.00;;;11.23;;
14923;SDS011;7554;43.600;1.480;2023-02-22T02:51:15;16.33;;;10.67;;
14923;SDS011;7554;43.600;1.480;2023-02-22T02:53:46;18.70;;;11.13;;
14923;SDS011;7554;43.600;1.480;2023-02-22T02:56:15;17.13;;;11.40;;
14923;SDS011;7554;43.600;1.480;2023-02-22T02:58:45;15.10;;;10.83;;
14923;SDS011;7554;43.600;1.480;2023-02-22T03:01:16;14.50;;;10.53;;
14923;SDS011;7554;43.600;1.480;2023-02-22T03:03:56;16.17;;;11.40;;
14923;SDS011;7554;43.600;1.480;2023-02-22T03:09:40;20.97;;;11.57;;
14923;SDS011;7554;43.600;1.480;2023-02-22T03:12:25;17.07;;;11.17;;
14923;SDS011;7554;43.600;1.480;2023-02-22T03:15:04;14.67;;;10.93;;
14923;SDS011;7554;43.600;1.480;2023-02-22T03:17:40;17.37;;;11.87;;
14923;SDS011;7554;43.600;1.480;2023-02-22T03:20:16;18.63;;;11.37;;
14923;SDS011;7554;43.600;1.480;2023-02-22T03:22:56;15.40;;;11.37;;
14923;SDS011;7554;43.600;1.480;2023-02-22T03:25:29;18.33;;;11.73;;
14923;SDS011;7554;43.600;1.480;2023-02-22T03:28:01;14.37;;;11.00;;
14923;SDS011;7554;43.600;1.480;2023-02-22T03:30:33;17.53;;;11.67;;
14923;SDS011;7554;43.600;1.480;2023-02-22T03:33:04;18.17;;;11.83;;
14923;SDS011;7554;43.600;1.480;2023-02-22T03:35:39;19.70;;;11.47;;
14923;SDS011;7554;43.600;1.480;2023-02-22T03:38:12;16.73;;;11.40;;
14923;SDS011;7554;43.600;1.480;2023-02-22T03:40:44;21.07;;;11.07;;
14923;SDS011;7554;43.600;1.480;2023-02-22T03:43:16;18.07;;;11.00;;
14923;SDS011;7554;43.600;1.480;2023-02-22T03:45:49;21.60;;;11.30;;
14923;SDS011;7554;43.600;1.480;2023-02-22T03:48:19;17.00;;;11.60;;
14923;SDS011;7554;43.600;1.480;2023-02-22T03:50:52;13.87;;;10.57;;
14923;SDS011;7554;43.600;1.480;2023-02-22T03:53:22;15.97;;;11.03;;
14923;SDS011;7554;43.600;1.480;2023-02-22T03:55:50;16.53;;;11.43;;
14923;SDS011;7554;43.600;1.480;2023-02-22T03:58:20;21.73;;;11.60;;
14923;SDS011;7554;43.600;1.480;2023-02-22T04:00:50;18.40;;;11.53;;
14923;SDS011;7554;43.600;1.480;2023-02-22T04:03:18;20.87;;;12.03;;
14923;SDS011;7554;43.600;1.480;2023-02-22T04:05:46;16.80;;;11.70;;
14923;SDS011;7554;43.600;1.480;2023-02-22T04:08:15;18.90;;;11.20;;
14923;SDS011;7554;43.600;1.480;2023-02-22T04:10:43;16.70;;;11.60;;
14923;SDS011;7554;43.600;1.480;2023-02-22T04:13:10;15.50;;;10.53;;
14923;SDS011;7554;43.600;1.480;2023-02-22T04:15:41;19.57;;;12.10;;
14923;SDS011;7554;43.600;1.480;2023-02-22T04:18:08;20.93;;;13.47;;
14923;SDS011;7554;43.600;1.480;2023-02-22T04:20:36;16.97;;;12.30;;
14923;SDS011;7554;43.600;1.480;2023-02-22T04:23:03;17.40;;;12.23;;
14923;SDS011;7554;43.600;1.480;2023-02-22T04:25:32;17.20;;;12.07;;
14923;SDS011;7554;43.600;1.480;2023-02-22T04:27:59;17.00;;;11.37;;
14923;SDS011;7554;43.600;1.480;2023-02-22T04:30:27;18.00;;;11.97;;
14923;SDS011;7554;43.600;1.480;2023-02-22T04:32:55;18.13;;;10.73;;
14923;SDS011;7554;43.600;1.480;2023-02-22T04:35:22;17.63;;;11.60;;
14923;SDS011;7554;43.600;1.480;2023-02-22T04:37:49;18.47;;;11.67;;
14923;SDS011;7554;43.600;1.480;2023-02-22T04:40:17;17.30;;;11.43;;
14923;SDS011;7554;43.600;1.480;2023-02-22T04:42:46;17.73;;;12.07;;
14923;SDS011;7554;43.600;1.480;2023-02-22T04:45:13;18.47;;;11.93;;
14923;SDS011;7554;43.600;1.480;2023-02-22T04:47:41;15.23;;;11.47;;
14923;SDS011;7554;43.600;1.480;2023-02-22T04:50:08;17.43;;;12.00;;
14923;SDS011;7554;43.600;1.480;2023-02-22T04:52:36;19.53;;;12.07;;
14923;SDS011;7554;43.600;1.480;2023-02-22T04:55:04;16.87;;;12.03;;
14923;SDS011;7554;43.600;1.480;2023-02-22T04:57:32;18.63;;;12.10;;
14923;SDS011;7554;43.600;1.480;2023-02-22T05:00:01;17.57;;;12.63;;
14923;SDS011;7554;43.600;1.480;2023-02-22T05:02:29;16.60;;;12.20;;
14923;SDS011;7554;43.600;1.480;2023-02-22T05:04:57;20.40;;;13.00;;
14923;SDS011;7554;43.600;1.480;2023-02-22T05:07:24;15.90;;;12.53;;
14923;SDS011;7554;43.600;1.480;2023-02-22T05:09:52;18.80;;;12.10;;
14923;SDS011;7554;43.600;1.480;2023-02-22T05:12:19;19.13;;;12.70;;
14923;SDS011;7554;43.600;1.480;2023-02-22T05:14:46;20.03;;;13.23;;
14923;SDS011;7554;43.600;1.480;2023-02-22T05:17:15;18.23;;;12.20;;
14923;SDS011;7554;43.600;1.480;2023-02-22T05:19:43;15.93;;;11.47;;
14923;SDS011;7554;43.600;1.480;2023-02-22T05:22:11;18.50;;;12.63;;
14923;SDS011;7554;43.600;1.480;2023-02-22T05:24:39;19.90;;;11.77;;
14923;SDS011;7554;43.600;1.480;2023-02-22T05:27:06;19.47;;;12.83;;
14923;SDS011;7554;43.600;1.480;2023-02-22T05:29:33;19.40;;;12.73;;
14923;SDS011;7554;43.600;1.480;2023-02-22T05:32:02;19.27;;;11.87;;
14923;SDS011;7554;43.600;1.480;2023-02-22T05:34:32;14.90;;;11.43;;
14923;SDS011;7554;43.600;1.480;2023-02-22T05:36:59;17.83;;;12.20;;
14923;SDS011;7554;43.600;1.480;2023-02-22T05:39:27;19.70;;;11.17;;
14923;SDS011;7554;43.600;1.480;2023-02-22T05:41:55;17.73;;;12.03;;
14923;SDS011;7554;43.600;1.480;2023-02-22T05:44:23;16.57;;;11.50;;
14923;SDS011;7554;43.600;1.480;2023-02-22T05:46:50;16.57;;;10.87;;
14923;SDS011;7554;43.600;1.480;2023-02-22T05:49:18;17.10;;;11.83;;
14923;SDS011;7554;43.600;1.480;2023-02-22T05:51:48;19.10;;;11.60;;
14923;SDS011;7554;43.600;1.480;2023-02-22T05:54:15;18.13;;;11.67;;
14923;SDS011;7554;43.600;1.480;2023-02-22T05:56:42;15.43;;;11.87;;
14923;SDS011;7554;43.600;1.480;2023-02-22T05:59:10;19.13;;;11.63;;
14923;SDS011;7554;43.600;1.480;2023-02-22T06:01:37;18.60;;;12.03;;
14923;SDS011;7554;43.600;1.480;2023-02-22T06:04:04;18.93;;;11.37;;
14923;SDS011;7554;43.600;1.480;2023-02-22T06:06:33;16.50;;;11.40;;
14923;SDS011;7554;43.600;1.480;2023-02-22T06:09:02;19.40;;;12.07;;
14923;SDS011;7554;43.600;1.480;2023-02-22T06:11:29;16.90;;;11.67;;
14923;SDS011;7554;43.600;1.480;2023-02-22T06:13:56;15.90;;;11.07;;
14923;SDS011;7554;43.600;1.480;2023-02-22T06:16:24;17.50;;;11.53;;
14923;SDS011;7554;43.600;1.480;2023-02-22T06:18:51;19.10;;;12.07;;
14923;SDS011;7554;43.600;1.480;2023-02-22T06:21:19;16.17;;;11.80;;
14923;SDS011;7554;43.600;1.480;2023-02-22T06:23:46;17.00;;;11.17;;
14923;SDS011;7554;43.600;1.480;2023-02-22T06:26:16;17.80;;;12.27;;
14923;SDS011;7554;43.600;1.480;2023-02-22T06:28:44;17.07;;;11.57;;
14923;SDS011;7554;43.600;1.480;2023-02-22T06:31:12;18.33;;;12.67;;
14923;SDS011;7554;43.600;1.480;2023-02-22T06:33:39;17.90;;;12.87;;
14923;SDS011;7554;43.600;1.480;2023-02-22T06:36:07;16.93;;;11.97;;
14923;SDS011;7554;43.600;1.480;2023-02-22T06:38:35;20.10;;;13.03;;
14923;SDS011;7554;43.600;1.480;2023-02-22T06:41:03;19.83;;;12.87;;
14923;SDS011;7554;43.600;1.480;2023-02-22T06:43:32;18.37;;;12.00;;
14923;SDS011;7554;43.600;1.480;2023-02-22T06:46:00;18.73;;;12.23;;
14923;SDS011;7554;43.600;1.480;2023-02-22T06:48:27;18.23;;;12.77;;
14923;SDS011;7554;43.600;1.480;2023-02-22T06:50:55;20.00;;;12.93;;
14923;SDS011;7554;43.600;1.480;2023-02-22T06:53:22;19.03;;;12.57;;
14923;SDS011;7554;43.600;1.480;2023-02-22T06:55:52;16.60;;;11.97;;
14923;SDS011;7554;43.600;1.480;2023-02-22T06:58:20;20.35;;;15.75;;
14923;SDS011;7554;43.600;1.480;2023-02-22T07:00:49;22.90;;;13.13;;
14923;SDS011;7554;43.600;1.480;2023-02-22T07:03:16;19.63;;;13.23;;
14923;SDS011;7554;43.600;1.480;2023-02-22T07:05:44;18.83;;;12.13;;
14923;SDS011;7554;43.600;1.480;2023-02-22T07:08:12;18.77;;;12.53;;
14923;SDS011;7554;43.600;1.480;2023-02-22T07:10:39;19.60;;;11.93;;
14923;SDS011;7554;43.600;1.480;2023-02-22T07:13:07;17.80;;;11.93;;
14923;SDS011;7554;43.600;1.480;2023-02-22T07:15:35;18.30;;;12.43;;
14923;SDS011;7554;43.600;1.480;2023-02-22T07:18:04;19.27;;;12.33;;
14923;SDS011;7554;43.600;1.480;2023-02-22T07:20:32;20.13;;;12.60;;
14923;SDS011;7554;43.600;1.480;2023-02-22T07:23:00;22.97;;;13.23;;
14923;SDS011;7554;43.600;1.480;2023-02-22T07:25:28;18.20;;;12.63;;
14923;SDS011;7554;43.600;1.480;2023-02-22T07:27:56;21.43;;;12.33;;
14923;SDS011;7554;43.600;1.480;2023-02-22T07:30:24;21.07;;;12.10;;
14923;SDS011;7554;43.600;1.480;2023-02-22T07:32:55;19.80;;;12.67;;
14923;SDS011;7554;43.600;1.480;2023-02-22T07:35:26;21.23;;;12.60;;
14923;SDS011;7554;43.600;1.480;2023-02-22T07:37:54;17.73;;;12.73;;
14923;SDS011;7554;43.600;1.480;2023-02-22T07:40:22;19.23;;;12.17;;
14923;SDS011;7554;43.600;1.480;2023-02-22T07:42:51;19.13;;;12.83;;
14923;SDS011;7554;43.600;1.480;2023-02-22T07:45:19;17.27;;;11.77;;
14923;SDS011;7554;43.600;1.480;2023-02-22T07:47:47;20.40;;;11.90;;
14923;SDS011;7554;43.600;1.480;2023-02-22T07:50:15;18.00;;;12.57;;
14923;SDS011;7554;43.600;1.480;2023-02-22T07:52:45;16.67;;;11.47;;
14923;SDS011;7554;43.600;1.480;2023-02-22T07:55:13;17.60;;;12.03;;
14923;SDS011;7554;43.600;1.480;2023-02-22T07:57:42;20.03;;;12.77;;
14923;SDS011;7554;43.600;1.480;2023-02-22T08:00:11;19.57;;;12.87;;
14923;SDS011;7554;43.600;1.480;2023-02-22T08:02:40;18.33;;;12.57;;
14923;SDS011;7554;43.600;1.480;2023-02-22T08:05:09;16.33;;;12.00;;
14923;SDS011;7554;43.600;1.480;2023-02-22T08:07:37;20.13;;;11.87;;
14923;SDS011;7554;43.600;1.480;2023-02-22T08:10:06;22.17;;;11.80;;
14923;SDS011;7554;43.600;1.480;2023-02-22T08:12:35;21.17;;;12.43;;
14923;SDS011;7554;43.600;1.480;2023-02-22T08:15:04;16.70;;;12.20;;
14923;SDS011;7554;43.600;1.480;2023-02-22T08:17:33;16.93;;;12.13;;
14923;SDS011;7554;43.600;1.480;2023-02-22T08:20:01;20.10;;;12.43;;
14923;SDS011;7554;43.600;1.480;2023-02-22T08:22:28;19.53;;;12.20;;
14923;SDS011;7554;43.600;1.480;2023-02-22T08:24:56;17.63;;;12.80;;
14923;SDS011;7554;43.600;1.480;2023-02-22T08:27:25;15.17;;;11.33;;
14923;SDS011;7554;43.600;1.480;2023-02-22T08:29:54;19.33;;;12.17;;
14923;SDS011;7554;43.600;1.480;2023-02-22T08:32:22;16.87;;;11.33;;
14923;SDS011;7554;43.600;1.480;2023-02-22T08:34:49;21.27;;;12.37;;
14923;SDS011;7554;43.600;1.480;2023-02-22T08:37:17;22.77;;;12.23;;
14923;SDS011;7554;43.600;1.480;2023-02-22T08:39:44;26.77;;;13.13;;
14923;SDS011;7554;43.600;1.480;2023-02-22T08:42:12;24.77;;;13.10;;
14923;SDS011;7554;43.600;1.480;2023-02-22T08:44:41;18.80;;;11.97;;
14923;SDS011;7554;43.600;1.480;2023-02-22T08:47:08;25.07;;;13.00;;
14923;SDS011;7554;43.600;1.480;2023-02-22T08:49:36;26.30;;;12.40;;
14923;SDS011;7554;43.600;1.480;2023-02-22T08:52:03;24.07;;;13.03;;
14923;SDS011;7554;43.600;1.480;2023-02-22T08:54:31;26.03;;;13.30;;
14923;SDS011;7554;43.600;1.480;2023-02-22T08:56:59;29.80;;;12.60;;
14923;SDS011;7554;43.600;1.480;2023-02-22T08:59:27;24.67;;;13.07;;
14923;SDS011;7554;43.600;1.480;2023-02-22T09:01:55;27.17;;;12.40;;
14923;SDS011;7554;43.600;1.480;2023-02-22T09:04:23;32.87;;;13.47;;
14923;SDS011;7554;43.600;1.480;2023-02-22T09:06:50;27.53;;;13.90;;
14923;SDS011;7554;43.600;1.480;2023-02-22T09:09:18;28.00;;;13.47;;
14923;SDS011;7554;43.600;1.480;2023-02-22T09:11:46;34.00;;;14.07;;
14923;SDS011;7554;43.600;1.480;2023-02-22T09:14:13;29.40;;;13.93;;
14923;SDS011;7554;43.600;1.480;2023-02-22T09:16:42;30.33;;;14.57;;
14923;SDS011;7554;43.600;1.480;2023-02-22T09:19:11;33.23;;;14.53;;
14923;SDS011;7554;43.600;1.480;2023-02-22T09:21:39;35.97;;;14.77;;
14923;SDS011;7554;43.600;1.480;2023-02-22T09:24:06;33.13;;;14.53;;
14923;SDS011;7554;43.600;1.480;2023-02-22T09:26:34;37.20;;;14.87;;
14923;SDS011;7554;43.600;1.480;2023-02-22T09:29:04;25.90;;;16.07;;
14923;SDS011;7554;43.600;1.480;2023-02-22T09:31:34;31.27;;;15.60;;
14923;SDS011;7554;43.600;1.480;2023-02-22T09:34:02;29.80;;;15.17;;
14923;SDS011;7554;43.600;1.480;2023-02-22T09:36:39;33.23;;;15.77;;
14923;SDS011;7554;43.600;1.480;2023-02-22T09:39:07;34.63;;;15.73;;
14923;SDS011;7554;43.600;1.480;2023-02-22T09:41:35;35.37;;;16.10;;
14923;SDS011;7554;43.600;1.480;2023-02-22T09:44:12;34.67;;;15.70;;
14923;SDS011;7554;43.600;1.480;2023-02-22T09:46:45;30.50;;;16.67;;
14923;SDS011;7554;43.600;1.480;2023-02-22T09:49:17;32.70;;;15.50;;
14923;SDS011;7554;43.600;1.480;2023-02-22T09:51:51;41.40;;;16.03;;
14923;SDS011;7554;43.600;1.480;2023-02-22T09:54:23;41.53;;;16.83;;
14923;SDS011;7554;43.600;1.480;2023-02-22T09:56:59;40.30;;;16.23;;
14923;SDS011;7554;43.600;1.480;2023-02-22T09:59:30;36.20;;;16.77;;
14923;SDS011;7554;43.600;1.480;2023-02-22T10:02:04;40.27;;;17.60;;
14923;SDS011;7554;43.600;1.480;2023-02-22T10:04:45;36.87;;;15.83;;
14923;SDS011;7554;43.600;1.480;2023-02-22T10:07:22;33.80;;;16.73;;
14923;SDS011;7554;43.600;1.480;2023-02-22T10:09:54;37.77;;;16.57;;
14923;SDS011;7554;43.600;1.480;2023-02-22T10:12:32;33.87;;;17.70;;
14923;SDS011;7554;43.600;1.480;2023-02-22T10:18:28;39.20;;;16.53;;
14923;SDS011;7554;43.600;1.480;2023-02-22T10:21:22;37.13;;;17.73;;
14923;SDS011;7554;43.600;1.480;2023-02-22T10:24:04;36.87;;;16.97;;
14923;SDS011;7554;43.600;1.480;2023-02-22T10:26:40;40.30;;;17.37;;
14923;SDS011;7554;43.600;1.480;2023-02-22T10:29:11;40.03;;;17.30;;
14923;SDS011;7554;43.600;1.480;2023-02-22T10:31:47;34.40;;;18.63;;
14923;SDS011;7554;43.600;1.480;2023-02-22T10:34:20;35.70;;;17.93;;
14923;SDS011;7554;43.600;1.480;2023-02-22T10:36:52;29.37;;;16.13;;
14923;SDS011;7554;43.600;1.480;2023-02-22T10:39:27;34.43;;;17.73;;
14923;SDS011;7554;43.600;1.480;2023-02-22T10:41:58;34.50;;;18.27;;
14923;SDS011;7554;43.600;1.480;2023-02-22T10:44:30;32.50;;;17.27;;
14923;SDS011;7554;43.600;1.480;2023-02-22T10:46:58;33.93;;;17.57;;
14923;SDS011;7554;43.600;1.480;2023-02-22T10:49:29;37.30;;;18.00;;
14923;SDS011;7554;43.600;1.480;2023-02-22T10:52:02;38.43;;;17.07;;
14923;SDS011;7554;43.600;1.480;2023-02-22T10:54:32;38.07;;;17.67;;
14923;SDS011;7554;43.600;1.480;2023-02-22T10:57:04;34.63;;;16.77;;
14923;SDS011;7554;43.600;1.480;2023-02-22T10:59:32;35.37;;;16.70;;
14923;SDS011;7554;43.600;1.480;2023-02-22T11:02:07;30.70;;;16.43;;
14923;SDS011;7554;43.600;1.480;2023-02-22T11:04:45;33.70;;;18.23;;
14923;SDS011;7554;43.600;1.480;2023-02-22T11:07:19;32.50;;;16.70;;
14923;SDS011;7554;43.600;1.480;2023-02-22T11:09:51;33.40;;;17.10;;
14923;SDS011;7554;43.600;1.480;2023-02-22T11:12:20;25.87;;;15.13;;
14923;SDS011;7554;43.600;1.480;2023-02-22T11:14:53;29.33;;;16.57;;
14923;SDS011;7554;43.600;1.480;2023-02-22T11:17:25;37.63;;;18.13;;
14923;SDS011;7554;43.600;1.480;2023-02-22T11:19:56;33.77;;;17.73;;
14923;SDS011;7554;43.600;1.480;2023-02-22T11:22:25;33.73;;;16.87;;
14923;SDS011;7554;43.600;1.480;2023-02-22T11:24:58;42.60;;;18.97;;
14923;SDS011;7554;43.600;1.480;2023-02-22T11:27:28;37.57;;;17.67;;
14923;SDS011;7554;43.600;1.480;2023-02-22T11:30:07;34.23;;;18.43;;
14923;SDS011;7554;43.600;1.480;2023-02-22T11:32:45;36.13;;;18.43;;
14923;SDS011;7554;43.600;1.480;2023-02-22T11:35:16;33.10;;;17.77;;
14923;SDS011;7554;43.600;1.480;2023-02-22T11:38:00;35.83;;;17.27;;
14923;SDS011;7554;43.600;1.480;2023-02-22T11:40:38;35.40;;;18.50;;
14923;SDS011;7554;43.600;1.480;2023-02-22T11:43:06;37.30;;;18.30;;
14923;SDS011;7554;43.600;1.480;2023-02-22T11:45:36;46.80;;;20.23;;
14923;SDS011;7554;43.600;1.480;2023-02-22T11:48:05;35.57;;;17.90;;
14923;SDS011;7554;43.600;1.480;2023-02-22T11:50:37;32.37;;;16.90;;
14923;SDS011;7554;43.600;1.480;2023-02-22T11:53:21;35.77;;;17.77;;
14923;SDS011;7554;43.600;1.480;2023-02-22T11:56:09;29.33;;;15.93;;
14923;SDS011;7554;43.600;1.480;2023-02-22T11:58:46;31.47;;;15.80;;
14923;SDS011;7554;43.600;1.480;2023-02-22T12:01:22;32.30;;;16.57;;
14923;SDS011;7554;43.600;1.480;2023-02-22T12:04:05;32.93;;;15.53;;
14923;SDS011;7554;43.600;1.480;2023-02-22T12:07:01;31.83;;;16.40;;
14923;SDS011;7554;43.600;1.480;2023-02-22T12:09:41;33.00;;;16.07;;
14923;SDS011;7554;43.600;1.480;2023-02-22T12:12:20;35.00;;;16.23;;
14923;SDS011;7554;43.600;1.480;2023-02-22T12:14:56;31.93;;;16.57;;
14923;SDS011;7554;43.600;1.480;2023-02-22T12:17:32;27.60;;;14.77;;
14923;SDS011;7554;43.600;1.480;2023-02-22T12:20:13;30.10;;;14.17;;
14923;SDS011;7554;43.600;1.480;2023-02-22T12:22:52;31.17;;;14.90;;
14923;SDS011;7554;43.600;1.480;2023-02-22T12:25:26;32.67;;;15.17;;
14923;SDS011;7554;43.600;1.480;2023-02-22T12:27:59;28.10;;;14.03;;
14923;SDS011;7554;43.600;1.480;2023-02-22T12:30:36;36.13;;;15.73;;
14923;SDS011;7554;43.600;1.480;2023-02-22T12:33:09;28.63;;;13.87;;
14923;SDS011;7554;43.600;1.480;2023-02-22T12:35:40;30.70;;;13.93;;
14923;SDS011;7554;43.600;1.480;2023-02-22T12:38:16;27.93;;;14.43;;
14923;SDS011;7554;43.600;1.480;2023-02-22T12:40:49;30.43;;;15.30;;
14923;SDS011;7554;43.600;1.480;2023-02-22T12:43:24;35.73;;;15.03;;
14923;SDS011;7554;43.600;1.480;2023-02-22T12:45:56;27.70;;;14.50;;
14923;SDS011;7554;43.600;1.480;2023-02-22T12:48:34;29.93;;;14.63;;
14923;SDS011;7554;43.600;1.480;2023-02-22T12:51:20;29.17;;;13.20;;
14923;SDS011;7554;43.600;1.480;2023-02-22T12:53:58;30.87;;;15.33;;
14923;SDS011;7554;43.600;1.480;2023-02-22T12:56:33;31.50;;;13.93;;
14923;SDS011;7554;43.600;1.480;2023-02-22T12:59:07;24.33;;;12.83;;
14923;SDS011;7554;43.600;1.480;2023-02-22T13:01:41;34.93;;;13.80;;
14923;SDS011;7554;43.600;1.480;2023-02-22T13:04:11;34.27;;;13.57;;
14923;SDS011;7554;43.600;1.480;2023-02-22T13:06:43;23.90;;;12.30;;
14923;SDS011;7554;43.600;1.480;2023-02-22T13:09:26;29.03;;;13.33;;
14923;SDS011;7554;43.600;1.480;2023-02-22T13:12:15;21.87;;;11.50;;
14923;SDS011;7554;43.600;1.480;2023-02-22T13:14:52;23.47;;;12.60;;
14923;SDS011;7554;43.600;1.480;2023-02-22T13:17:31;23.60;;;12.60;;
14923;SDS011;7554;43.600;1.480;2023-02-22T13:20:06;26.73;;;12.60;;
14923;SDS011;7554;43.600;1.480;2023-02-22T13:22:40;22.23;;;11.37;;
14923;SDS011;7554;43.600;1.480;2023-02-22T13:25:14;19.90;;;11.37;;
14923;SDS011;7554;43.600;1.480;2023-02-22T13:27:47;23.70;;;12.07;;
14923;SDS011;7554;43.600;1.480;2023-02-22T13:32:59;21.90;;;11.10;;
14923;SDS011;7554;43.600;1.480;2023-02-22T13:35:46;21.37;;;11.40;;
14923;SDS011;7554;43.600;1.480;2023-02-22T13:38:50;23.07;;;10.93;;
14923;SDS011;7554;43.600;1.480;2023-02-22T13:41:50;24.00;;;11.03;;
14923;SDS011;7554;43.600;1.480;2023-02-22T13:51:00;14.17;;;8.13;;
14923;SDS011;7554;43.600;1.480;2023-02-22T13:53:42;20.87;;;8.93;;
14923;SDS011;7554;43.600;1.480;2023-02-22T13:56:18;14.17;;;8.20;;
14923;SDS011;7554;43.600;1.480;2023-02-22T13:58:48;20.17;;;8.80;;
14923;SDS011;7554;43.600;1.480;2023-02-22T14:01:37;16.90;;;8.07;;
14923;SDS011;7554;43.600;1.480;2023-02-22T14:07:00;14.70;;;7.93;;
14923;SDS011;7554;43.600;1.480;2023-02-22T14:09:42;15.87;;;8.07;;
14923;SDS011;7554;43.600;1.480;2023-02-22T14:15:23;17.30;;;8.63;;
14923;SDS011;7554;43.600;1.480;2023-02-22T14:17:56;18.83;;;8.60;;
14923;SDS011;7554;43.600;1.480;2023-02-22T14:20:26;19.93;;;9.17;;
14923;SDS011;7554;43.600;1.480;2023-02-22T14:26:08;25.17;;;10.50;;
14923;SDS011;7554;43.600;1.480;2023-02-22T14:28:39;22.90;;;10.30;;
14923;SDS011;7554;43.600;1.480;2023-02-22T14:31:13;19.20;;;10.37;;
14923;SDS011;7554;43.600;1.480;2023-02-22T14:33:49;19.60;;;11.23;;
14923;SDS011;7554;43.600;1.480;2023-02-22T14:36:32;21.33;;;10.57;;
14923;SDS011;7554;43.600;1.480;2023-02-22T14:39:18;17.63;;;10.33;;
14923;SDS011;7554;43.600;1.480;2023-02-22T14:41:50;22.73;;;10.47;;
14923;SDS011;7554;43.600;1.480;2023-02-22T14:44:26;20.20;;;11.00;;
14923;SDS011;7554;43.600;1.480;2023-02-22T14:46:58;21.23;;;10.30;;
14923;SDS011;7554;43.600;1.480;2023-02-22T14:49:29;20.17;;;9.57;;
14923;SDS011;7554;43.600;1.480;2023-02-22T14:52:01;20.60;;;10.00;;
14923;SDS011;7554;43.600;1.480;2023-02-22T14:54:34;17.93;;;9.40;;
14923;SDS011;7554;43.600;1.480;2023-02-22T14:57:08;15.70;;;9.60;;
14923;SDS011;7554;43.600;1.480;2023-02-22T14:59:58;16.60;;;8.73;;
14923;SDS011;7554;43.600;1.480;2023-02-22T15:02:47;19.10;;;10.27;;
14923;SDS011;7554;43.600;1.480;2023-02-22T15:05:16;18.40;;;8.77;;
14923;SDS011;7554;43.600;1.480;2023-02-22T15:07:49;15.97;;;9.10;;
14923;SDS011;7554;43.600;1.480;2023-02-22T15:10:21;20.00;;;8.97;;
14923;SDS011;7554;43.600;1.480;2023-02-22T15:12:52;15.53;;;8.93;;
14923;SDS011;7554;43.600;1.480;2023-02-22T15:15:33;20.63;;;9.13;;
14923;SDS011;7554;43.600;1.480;2023-02-22T15:18:01;16.70;;;8.60;;
14923;SDS011;7554;43.600;1.480;2023-02-22T15:20:32;16.67;;;8.17;;
14923;SDS011;7554;43.600;1.480;2023-02-22T15:23:02;17.93;;;8.13;;
14923;SDS011;7554;43.600;1.480;2023-02-22T15:25:31;20.73;;;8.73;;
14923;SDS011;7554;43.600;1.480;2023-02-22T15:28:02;13.97;;;7.50;;
14923;SDS011;7554;43.600;1.480;2023-02-22T15:30:33;16.03;;;7.47;;
14923;SDS011;7554;43.600;1.480;2023-02-22T15:33:15;15.43;;;7.83;;
14923;SDS011;7554;43.600;1.480;2023-02-22T15:35:52;18.37;;;8.37;;